Terminal Aerodrome Forecast
Issued by NWS

Home | Current Version | Previous Version | Text Only | Print | Product List | Glossary On
Versions: 1 2 3 4 5 6 7 8 9 10 11 12 13 14 15 16 17 18 19 20 21 22
000
FTUS43 KIND 190200 AAA
TAFBMG
TAF AMD
KBMG 190231Z 1903/1924 09005KT P6SM BKN200
     FM190600 07010KT P6SM OVC200
     FM191300 09013KT 5SM SHRA BR OVC012
     FM191600 12014KT 3SM SHRA BR OVC006
     FM192300 24012KT 5SM SHRA BR OVC009
      AMD LTD TO CLD VIS AND WIND TIL 191300=

USA.gov is the U.S. government's official web portal to all federal, state and local government web resources and services.